createdAt,value
2019-01-03T00:01:13.920Z,5.17
2019-01-03T00:03:50.987Z,4.67
2019-01-03T00:06:30.839Z,5.43
2019-01-03T00:09:18.184Z,5.33
2019-01-03T00:11:52.168Z,4.33
2019-01-03T00:14:41.125Z,5.47
2019-01-03T00:17:28.087Z,5.63
2019-01-03T00:20:13.923Z,4.80
2019-01-03T00:23:00.894Z,4.73
2019-01-03T00:25:37.387Z,4.80
2019-01-03T00:28:24.639Z,4.27
2019-01-03T00:31:04.169Z,4.80
2019-01-03T00:33:43.688Z,4.53
2019-01-03T00:36:23.294Z,5.20
2019-01-03T00:38:54.286Z,5.13
2019-01-03T00:41:41.621Z,4.33
2019-01-03T00:44:18.542Z,4.90
2019-01-03T00:46:49.564Z,3.90
2019-01-03T00:49:23.568Z,5.53
2019-01-03T00:52:00.196Z,4.60
2019-01-03T00:54:43.259Z,4.50
2019-01-03T00:57:14.279Z,4.60
2019-01-03T00:59:45.294Z,4.70
2019-01-03T01:02:32.656Z,4.50
2019-01-03T01:05:19.895Z,4.73
2019-01-03T01:07:50.919Z,5.70
2019-01-03T01:10:21.915Z,5.60
2019-01-03T01:12:55.335Z,5.30
2019-01-03T01:15:29.339Z,6.00
2019-01-03T01:18:01.991Z,4.97
2019-01-03T01:20:36.060Z,4.87
2019-01-03T01:23:23.120Z,5.43
2019-01-03T01:25:57.111Z,5.43
2019-01-03T01:28:30.852Z,4.67
2019-01-03T01:31:07.589Z,4.20
2019-01-03T01:33:56.421Z,5.07
2019-01-03T01:36:43.578Z,5.47
2019-01-03T01:39:20.236Z,4.80
2019-01-03T01:41:51.253Z,4.83
2019-01-03T01:44:40.432Z,5.00
2019-01-03T01:47:11.493Z,5.43
2019-01-03T01:49:57.571Z,5.00
2019-01-03T01:52:31.139Z,4.73
2019-01-03T01:55:07.680Z,5.93
2019-01-03T01:57:44.414Z,4.50
2019-01-03T02:00:20.936Z,5.20
2019-01-03T02:03:07.696Z,4.47
2019-01-03T02:05:50.234Z,4.30
2019-01-03T02:08:29.938Z,4.87
2019-01-03T02:11:06.712Z,4.57
2019-01-03T02:13:53.671Z,4.90
2019-01-03T02:16:30.637Z,5.73
2019-01-03T02:19:04.509Z,3.97
2019-01-03T02:21:52.223Z,3.70
2019-01-03T02:24:26.310Z,6.67
2019-01-03T02:27:06.212Z,6.47
2019-01-03T02:29:55.050Z,4.13
2019-01-03T02:32:41.000Z,3.83
2019-01-03T02:35:12.082Z,4.00
2019-01-03T02:38:00.935Z,4.50
2019-01-03T02:40:43.655Z,4.43
2019-01-03T02:43:23.095Z,3.43
2019-01-03T02:45:54.128Z,3.77
2019-01-03T02:48:25.128Z,3.87
2019-01-03T02:51:05.016Z,3.93
2019-01-03T02:53:52.256Z,4.67
2019-01-03T02:56:41.209Z,3.90
2019-01-03T02:59:28.040Z,4.60
2019-01-03T03:02:01.313Z,4.67
2019-01-03T03:04:48.632Z,4.67
2019-01-03T03:07:37.261Z,4.33
2019-01-03T03:10:13.824Z,4.57
2019-01-03T03:12:44.828Z,4.13
2019-01-03T03:15:15.839Z,5.57
2019-01-03T03:17:53.545Z,4.57
2019-01-03T03:20:42.718Z,5.37
2019-01-03T03:23:16.508Z,4.70
2019-01-03T03:25:56.616Z,4.30
2019-01-03T03:28:43.617Z,3.73
2019-01-03T03:31:30.779Z,4.60
2019-01-03T03:34:01.765Z,5.07
2019-01-03T03:36:32.774Z,4.30
2019-01-03T03:39:03.751Z,5.23
2019-01-03T03:41:40.537Z,6.30
2019-01-03T03:44:20.358Z,5.77
2019-01-03T03:46:51.376Z,5.47
2019-01-03T03:49:38.599Z,4.13
2019-01-03T03:52:12.124Z,5.17
2019-01-03T03:54:52.273Z,5.20
2019-01-03T03:57:39.290Z,5.20
2019-01-03T04:00:26.512Z,5.47
2019-01-03T04:03:06.102Z,7.23
2019-01-03T04:05:53.000Z,7.20
2019-01-03T04:08:24.029Z,5.97
2019-01-03T04:11:03.728Z,6.20
2019-01-03T04:13:50.892Z,6.77
2019-01-03T04:16:33.464Z,7.80
2019-01-03T04:19:20.806Z,6.73
2019-01-03T04:22:07.757Z,7.10
2019-01-03T04:24:54.798Z,7.27
2019-01-03T04:27:25.800Z,7.70
2019-01-03T04:30:08.729Z,7.50
2019-01-03T04:32:54.330Z,7.07
2019-01-03T04:35:28.039Z,7.23
2019-01-03T04:37:59.031Z,6.37
2019-01-03T04:40:46.044Z,6.60
2019-01-03T04:43:26.039Z,7.13
2019-01-03T04:46:05.710Z,7.73
2019-01-03T04:48:39.218Z,7.37
2019-01-03T04:51:28.048Z,7.90
2019-01-03T04:54:04.990Z,8.67
2019-01-03T04:56:36.020Z,7.43
2019-01-03T04:59:14.117Z,8.97
2019-01-03T05:02:01.152Z,7.90
2019-01-03T05:04:50.356Z,7.97
2019-01-03T05:07:39.460Z,7.67
2019-01-03T05:10:13.207Z,6.17
2019-01-03T05:13:00.223Z,7.07
2019-01-03T05:15:36.910Z,7.17
2019-01-03T05:18:23.065Z,8.07
2019-01-03T05:21:10.380Z,7.30
2019-01-03T05:23:47.711Z,6.67
2019-01-03T05:26:18.745Z,7.53
2019-01-03T05:29:07.640Z,5.20
2019-01-03T05:31:41.571Z,6.27
2019-01-03T05:34:24.177Z,6.13
2019-01-03T05:37:07.016Z,8.43
2019-01-03T05:39:38.065Z,7.47
2019-01-03T05:42:25.149Z,7.30
2019-01-03T05:44:59.076Z,7.03
2019-01-03T05:47:38.857Z,7.30
2019-01-03T05:50:15.651Z,6.67
2019-01-03T05:53:06.007Z,7.80
2019-01-03T05:55:53.324Z,6.83
2019-01-03T05:58:30.131Z,8.23
2019-01-03T06:01:07.175Z,7.73
2019-01-03T06:03:54.243Z,7.73
2019-01-03T06:06:25.294Z,7.97
2019-01-03T06:08:56.284Z,8.27
2019-01-03T06:11:39.211Z,7.90
2019-01-03T06:14:12.693Z,9.40
2019-01-03T06:16:55.381Z,7.90
2019-01-03T06:19:41.243Z,7.83
2019-01-03T06:22:14.704Z,8.57
2019-01-03T06:24:45.700Z,8.77
2019-01-03T06:27:32.971Z,8.90
2019-01-03T06:30:18.905Z,8.77
2019-01-03T06:33:06.301Z,7.67
2019-01-03T06:35:53.724Z,8.70
2019-01-03T06:38:39.924Z,8.03
2019-01-03T06:41:10.963Z,7.50
2019-01-03T06:43:53.886Z,8.60
2019-01-03T06:46:27.628Z,8.73
2019-01-03T06:49:01.357Z,9.17
2019-01-03T06:51:32.361Z,9.30
2019-01-03T06:54:18.162Z,7.83
2019-01-03T06:57:05.334Z,14.03
2019-01-03T06:59:39.460Z,8.67
2019-01-03T07:02:22.328Z,8.73
2019-01-03T07:04:53.377Z,8.97
2019-01-03T07:07:33.044Z,8.93
2019-01-03T07:10:20.155Z,9.07
2019-01-03T07:12:51.227Z,10.07
2019-01-03T07:15:24.653Z,12.20
2019-01-03T07:17:55.662Z,10.47
2019-01-03T07:20:29.745Z,14.30
2019-01-03T07:23:00.857Z,11.90
2019-01-03T07:25:34.521Z,12.20
2019-01-03T07:28:09.642Z,12.03
2019-01-03T07:30:58.742Z,14.13
2019-01-03T07:33:35.551Z,12.43
2019-01-03T07:36:09.339Z,11.87
2019-01-03T07:38:40.402Z,12.27
2019-01-03T07:41:11.433Z,11.30
2019-01-03T07:43:47.983Z,11.37
2019-01-03T07:46:30.815Z,11.03
2019-01-03T07:49:16.732Z,13.27
2019-01-03T07:51:59.444Z,14.00
2019-01-03T07:54:46.523Z,13.70
2019-01-03T07:57:20.344Z,15.37
2019-01-03T08:00:00.365Z,14.80
2019-01-03T08:02:47.299Z,13.80
2019-01-03T08:05:26.816Z,14.40
2019-01-03T08:08:12.987Z,14.30
2019-01-03T08:11:00.246Z,15.00
2019-01-03T08:13:31.275Z,15.27
2019-01-03T08:16:18.471Z,15.20
2019-01-03T08:18:51.521Z,14.50
2019-01-03T08:21:41.261Z,15.67
2019-01-03T08:24:15.270Z,14.67
2019-01-03T08:26:49.741Z,15.60
2019-01-03T08:29:36.744Z,15.17
2019-01-03T08:32:10.400Z,15.00
2019-01-03T08:34:53.473Z,15.20
2019-01-03T08:37:36.632Z,12.73
2019-01-03T08:40:09.007Z,13.67
2019-01-03T08:42:45.794Z,14.57
2019-01-03T08:45:25.395Z,15.37
2019-01-03T08:47:56.439Z,17.00
2019-01-03T08:50:39.323Z,16.10
2019-01-03T08:53:26.445Z,15.00
2019-01-03T08:56:06.077Z,14.90
2019-01-03T08:58:43.071Z,14.13
2019-01-03T09:01:14.162Z,14.77
2019-01-03T09:03:45.161Z,14.40
2019-01-03T09:06:32.231Z,15.07
2019-01-03T09:09:06.215Z,16.43
2019-01-03T09:11:43.234Z,15.53
2019-01-03T09:14:14.228Z,15.67
2019-01-03T09:16:57.078Z,14.40
2019-01-03T09:19:44.491Z,14.57
2019-01-03T09:22:15.976Z,14.07
2019-01-03T09:24:55.969Z,14.87
2019-01-03T09:27:29.388Z,14.23
2019-01-03T09:30:16.365Z,14.97
2019-01-03T09:32:50.815Z,15.77
2019-01-03T09:35:24.514Z,16.00
2019-01-03T09:38:04.647Z,16.03
2019-01-03T09:40:38.762Z,18.10
2019-01-03T09:43:25.635Z,16.00
2019-01-03T09:45:55.048Z,15.53
2019-01-03T09:48:24.493Z,17.83
2019-01-03T09:50:53.871Z,18.00
2019-01-03T09:53:23.253Z,18.33
2019-01-03T09:55:52.632Z,17.53
2019-01-03T09:58:22.012Z,19.23
2019-01-03T10:00:51.389Z,17.07
2019-01-03T10:03:20.760Z,17.87
2019-01-03T10:05:50.151Z,16.87
2019-01-03T10:08:19.845Z,16.50
2019-01-03T10:10:49.265Z,17.03
2019-01-03T10:13:18.648Z,17.27
2019-01-03T10:15:48.014Z,16.00
2019-01-03T10:18:17.399Z,16.70
2019-01-03T10:20:46.826Z,17.23
2019-01-03T10:23:16.797Z,17.97
2019-01-03T10:25:46.169Z,17.53
2019-01-03T10:28:15.558Z,16.97
2019-01-03T10:30:44.921Z,17.07
2019-01-03T10:33:14.297Z,16.17
2019-01-03T10:35:43.754Z,16.40
2019-01-03T10:38:13.718Z,16.50
2019-01-03T10:40:43.105Z,17.23
2019-01-03T10:43:12.481Z,15.93
2019-01-03T10:45:41.864Z,15.73
2019-01-03T10:48:11.226Z,18.77
2019-01-03T10:50:40.613Z,17.73
2019-01-03T10:53:10.493Z,18.37
2019-01-03T10:55:39.928Z,19.57
2019-01-03T10:58:09.304Z,18.00
2019-01-03T11:00:38.683Z,17.60
2019-01-03T11:03:08.068Z,20.43
2019-01-03T11:05:37.415Z,18.73
2019-01-03T11:08:06.864Z,18.93
2019-01-03T11:10:36.243Z,19.83
2019-01-03T11:13:05.631Z,19.00
2019-01-03T11:15:35.055Z,18.37
2019-01-03T11:18:04.444Z,19.77
2019-01-03T11:20:33.817Z,18.90
2019-01-03T11:23:04.702Z,19.17
2019-01-03T11:25:34.332Z,19.10
2019-01-03T11:28:03.790Z,19.67
2019-01-03T11:30:33.162Z,22.03
2019-01-03T11:33:02.532Z,20.23
2019-01-03T11:35:31.897Z,19.97
2019-01-03T11:38:01.269Z,19.97
2019-01-03T11:40:30.660Z,18.83
2019-01-03T11:43:00.021Z,19.23
2019-01-03T11:45:29.420Z,18.23
2019-01-03T11:47:59.151Z,19.53
2019-01-03T11:50:28.535Z,19.53
2019-01-03T11:52:57.985Z,20.50
2019-01-03T11:55:27.397Z,19.97
2019-01-03T11:57:56.779Z,21.27
2019-01-03T12:00:26.157Z,20.67
2019-01-03T12:02:55.534Z,21.17
2019-01-03T12:05:24.901Z,20.73
2019-01-03T12:07:54.300Z,21.90
2019-01-03T12:10:25.161Z,23.50
2019-01-03T12:12:54.552Z,22.93
2019-01-03T12:15:23.946Z,23.03
2019-01-03T12:17:53.378Z,21.93
2019-01-03T12:20:22.761Z,23.13
2019-01-03T12:22:52.117Z,22.43
2019-01-03T12:25:21.509Z,23.03
2019-01-03T12:27:50.929Z,23.03
2019-01-03T12:30:20.306Z,22.83
2019-01-03T12:32:49.681Z,21.40
2019-01-03T12:35:19.972Z,20.83
2019-01-03T12:37:49.369Z,21.20
2019-01-03T12:40:18.715Z,22.40
2019-01-03T12:42:48.092Z,19.53
2019-01-03T12:45:17.451Z,18.90
2019-01-03T12:47:46.811Z,20.13
2019-01-03T12:50:16.128Z,20.63
2019-01-03T12:52:45.491Z,20.17
2019-01-03T12:55:14.878Z,20.47
2019-01-03T12:57:44.232Z,18.90
2019-01-03T13:00:14.335Z,19.40
2019-01-03T13:02:43.709Z,19.47
2019-01-03T13:05:13.492Z,18.73
2019-01-03T13:07:42.943Z,18.73
2019-01-03T13:10:12.417Z,18.73
2019-01-03T13:12:41.916Z,18.13
2019-01-03T13:15:11.435Z,19.00
2019-01-03T13:17:40.812Z,19.03
2019-01-03T13:20:10.307Z,19.63
2019-01-03T13:22:39.668Z,18.83
2019-01-03T13:25:09.091Z,19.43
2019-01-03T13:27:38.491Z,19.70
2019-01-03T13:30:12.459Z,19.00
2019-01-03T13:32:41.905Z,19.23
2019-01-03T13:35:11.925Z,18.47
2019-01-03T13:37:41.354Z,17.53
2019-01-03T13:40:10.737Z,16.17
2019-01-03T13:42:40.104Z,15.93
2019-01-03T13:45:09.616Z,15.77
2019-01-03T13:47:38.983Z,15.30
2019-01-03T13:50:08.494Z,14.50
2019-01-03T13:52:37.863Z,13.73
2019-01-03T13:55:07.315Z,14.20
2019-01-03T13:57:36.671Z,14.13
2019-01-03T14:00:08.627Z,14.20
2019-01-03T14:02:39.689Z,13.30
2019-01-03T14:05:09.134Z,13.53
2019-01-03T14:07:38.512Z,13.77
2019-01-03T14:10:08.128Z,12.47
2019-01-03T14:12:37.536Z,12.90
2019-01-03T14:15:07.843Z,13.30
2019-01-03T14:17:37.296Z,13.10
2019-01-03T14:20:09.961Z,12.43
2019-01-03T14:22:40.872Z,12.60
2019-01-03T14:25:10.239Z,12.60
2019-01-03T14:27:39.725Z,11.60
2019-01-03T14:30:09.926Z,12.43
2019-01-03T14:32:39.308Z,11.60
2019-01-03T14:35:08.754Z,12.00
2019-01-03T14:37:38.145Z,12.17
2019-01-03T14:40:08.431Z,12.10
2019-01-03T14:42:37.788Z,13.30
2019-01-03T14:45:07.412Z,11.37
2019-01-03T14:47:36.776Z,12.20
2019-01-03T14:50:08.805Z,11.87
2019-01-03T14:52:38.182Z,11.53
2019-01-03T14:55:09.552Z,11.87
2019-01-03T14:57:38.903Z,12.07
2019-01-03T15:00:12.101Z,12.90
2019-01-03T15:02:41.485Z,11.87
2019-01-03T15:05:13.859Z,11.67
2019-01-03T15:07:42.009Z,12.87
2019-01-03T15:10:11.468Z,12.10
2019-01-03T15:12:41.054Z,12.70
2019-01-03T15:15:10.424Z,14.70
2019-01-03T15:17:39.799Z,13.10
2019-01-03T15:20:10.896Z,13.23
2019-01-03T15:22:40.290Z,13.23
2019-01-03T15:25:09.640Z,12.13
2019-01-03T15:27:39.202Z,13.27
2019-01-03T15:30:10.618Z,12.93
2019-01-03T15:32:39.992Z,14.53
2019-01-03T15:35:09.338Z,14.90
2019-01-03T15:37:38.739Z,14.57
2019-01-03T15:40:08.294Z,14.97
2019-01-03T15:42:37.661Z,14.80
2019-01-03T15:45:08.090Z,16.17
2019-01-03T15:47:37.484Z,15.53
2019-01-03T15:50:07.297Z,16.83
2019-01-03T15:52:36.766Z,16.93
2019-01-03T15:55:06.199Z,16.83
2019-01-03T15:57:35.599Z,18.47
2019-01-03T16:00:08.045Z,17.17
2019-01-03T16:02:37.476Z,17.87
2019-01-03T16:05:07.475Z,17.27
2019-01-03T16:07:36.859Z,17.40
2019-01-03T16:10:07.076Z,18.27
2019-01-03T16:12:36.462Z,17.57
2019-01-03T16:15:06.062Z,16.17
2019-01-03T16:17:35.524Z,19.50
2019-01-03T16:20:06.276Z,17.40
2019-01-03T16:22:35.656Z,18.23
2019-01-03T16:25:05.670Z,18.33
2019-01-03T16:27:35.031Z,19.70
2019-01-03T16:30:06.856Z,18.33
2019-01-03T16:32:36.231Z,19.07
2019-01-03T16:35:05.676Z,18.07
2019-01-03T16:37:35.128Z,18.00
2019-01-03T16:40:06.231Z,19.47
2019-01-03T16:42:40.792Z,19.37
2019-01-03T16:45:11.815Z,18.37
2019-01-03T16:47:41.440Z,18.47
2019-01-03T16:50:13.358Z,16.30
2019-01-03T16:52:42.881Z,17.23
2019-01-03T16:55:12.347Z,19.13
2019-01-03T16:57:41.775Z,17.57
2019-01-03T17:00:11.803Z,16.90
2019-01-03T17:02:41.189Z,17.43
2019-01-03T17:05:11.129Z,19.07
2019-01-03T17:07:40.511Z,16.57
2019-01-03T17:10:12.276Z,17.33
2019-01-03T17:12:41.674Z,17.17
2019-01-03T17:15:11.081Z,15.47
2019-01-03T17:17:40.519Z,17.13
2019-01-03T17:20:10.731Z,17.27
2019-01-03T17:22:40.139Z,16.73
2019-01-03T17:25:10.562Z,16.50
2019-01-03T17:27:39.949Z,17.93
2019-01-03T17:30:10.648Z,18.30
2019-01-03T17:32:40.097Z,16.00
2019-01-03T17:35:10.610Z,16.93
2019-01-03T17:37:39.995Z,15.93
2019-01-03T17:40:11.398Z,19.63
2019-01-03T17:42:41.276Z,20.67
2019-01-03T17:45:11.378Z,27.97
2019-01-03T17:47:40.856Z,19.87
2019-01-03T17:50:11.570Z,19.57
2019-01-03T17:52:41.141Z,20.90
2019-01-03T17:55:10.500Z,20.70
2019-01-03T17:57:39.896Z,21.07
2019-01-03T18:00:12.371Z,16.63
2019-01-03T18:02:41.828Z,18.77
2019-01-03T18:05:11.202Z,17.50
2019-01-03T18:07:40.571Z,17.43
2019-01-03T18:10:12.412Z,17.97
2019-01-03T18:12:41.991Z,18.80
2019-01-03T18:15:11.612Z,18.50
2019-01-03T18:17:41.071Z,18.43
2019-01-03T18:20:14.660Z,18.97
2019-01-03T18:22:44.113Z,20.63
2019-01-03T18:25:13.553Z,19.27
2019-01-03T18:27:42.991Z,18.77
2019-01-03T18:30:13.012Z,19.90
2019-01-03T18:32:42.389Z,20.00
2019-01-03T18:35:11.906Z,18.83
2019-01-03T18:37:41.268Z,19.03
2019-01-03T18:40:12.966Z,19.77
2019-01-03T18:42:42.441Z,19.00
2019-01-03T18:45:14.362Z,19.73
2019-01-03T18:47:43.723Z,20.00
2019-01-03T18:50:18.767Z,21.30
2019-01-03T18:52:46.043Z,21.10
2019-01-03T18:55:17.167Z,21.87
2019-01-03T18:57:46.717Z,22.83
2019-01-03T19:00:20.606Z,21.33
2019-01-03T19:02:50.199Z,21.67
2019-01-03T19:05:19.568Z,21.33
2019-01-03T19:07:48.969Z,20.77
2019-01-03T19:10:18.390Z,22.53
2019-01-03T19:12:47.757Z,21.70
2019-01-03T19:15:17.134Z,22.10
2019-01-03T19:17:46.523Z,22.00
2019-01-03T19:20:15.963Z,23.97
2019-01-03T19:22:45.346Z,24.20
2019-01-03T19:25:16.412Z,22.73
2019-01-03T19:27:45.935Z,23.27
2019-01-03T19:30:15.285Z,22.30
2019-01-03T19:32:44.728Z,23.83
2019-01-03T19:35:14.244Z,23.10
2019-01-03T19:37:43.628Z,20.20
2019-01-03T19:40:13.935Z,22.70
2019-01-03T19:42:44.461Z,24.10
2019-01-03T19:45:13.981Z,24.17
2019-01-03T19:47:43.489Z,23.70
2019-01-03T19:50:15.664Z,22.80
2019-01-03T19:52:45.046Z,23.07
2019-01-03T19:55:14.533Z,23.50
2019-01-03T19:57:43.981Z,23.63
2019-01-03T20:00:15.343Z,24.53
2019-01-03T20:02:44.769Z,22.93
2019-01-03T20:05:14.261Z,23.80
2019-01-03T20:07:43.667Z,25.10
2019-01-03T20:10:13.417Z,22.90
2019-01-03T20:12:43.462Z,24.93
2019-01-03T20:15:14.601Z,26.70
2019-01-03T20:17:43.984Z,26.03
2019-01-03T20:20:13.428Z,25.93
2019-01-03T20:22:42.875Z,24.30
2019-01-03T20:25:12.315Z,24.10
2019-01-03T20:27:41.779Z,25.73
2019-01-03T20:30:11.624Z,25.67
2019-01-03T20:32:40.990Z,24.80
2019-01-03T20:35:10.460Z,23.50
2019-01-03T20:37:39.817Z,24.63
2019-01-03T20:40:09.841Z,22.97
2019-01-03T20:42:39.609Z,23.30
2019-01-03T20:45:12.045Z,24.50
2019-01-03T20:47:44.503Z,24.07
2019-01-03T20:50:13.955Z,24.73
2019-01-03T20:52:43.338Z,22.60
2019-01-03T20:55:12.731Z,20.73
2019-01-03T20:57:42.118Z,22.90
2019-01-03T21:00:13.947Z,24.30
2019-01-03T21:02:43.316Z,23.33
2019-01-03T21:05:12.747Z,22.47
2019-01-03T21:07:43.639Z,21.93
2019-01-03T21:10:13.240Z,22.80
2019-01-03T21:12:42.733Z,24.97
2019-01-03T21:15:14.645Z,23.87
2019-01-03T21:17:45.084Z,23.97
2019-01-03T21:20:15.940Z,22.37
2019-01-03T21:22:45.345Z,23.50
2019-01-03T21:25:14.773Z,22.93
2019-01-03T21:27:44.211Z,24.23
2019-01-03T21:30:17.972Z,25.53
2019-01-03T21:32:47.405Z,24.33
2019-01-03T21:35:16.779Z,24.50
2019-01-03T21:37:46.161Z,22.83
2019-01-03T21:40:16.020Z,23.67
2019-01-03T21:42:45.445Z,24.77
2019-01-03T21:45:14.835Z,20.33
2019-01-03T21:47:44.230Z,23.00
2019-01-03T21:50:13.779Z,21.53
2019-01-03T21:52:43.187Z,22.83
2019-01-03T21:55:12.552Z,18.67
2019-01-03T21:57:41.944Z,19.73
2019-01-03T22:00:12.068Z,18.40
2019-01-03T22:02:41.448Z,19.47
2019-01-03T22:05:10.925Z,17.57
2019-01-03T22:07:40.434Z,18.67
2019-01-03T22:10:10.265Z,17.90
2019-01-03T22:12:39.755Z,16.60
2019-01-03T22:15:09.664Z,17.23
2019-01-03T22:17:39.114Z,13.73
2019-01-03T22:20:09.539Z,14.23
2019-01-03T22:22:38.888Z,15.40
2019-01-03T22:25:08.726Z,14.43
2019-01-03T22:27:38.230Z,14.07
2019-01-03T22:30:09.878Z,12.03
2019-01-03T22:32:39.243Z,11.93
2019-01-03T22:35:08.697Z,12.03
2019-01-03T22:37:38.059Z,11.53
2019-01-03T22:40:08.236Z,12.60
2019-01-03T22:42:37.586Z,11.60
2019-01-03T22:45:08.222Z,12.80
2019-01-03T22:47:37.585Z,11.93
2019-01-03T22:50:09.193Z,11.20
2019-01-03T22:52:38.549Z,12.57
2019-01-03T22:55:08.096Z,11.60
2019-01-03T22:57:37.493Z,13.80
2019-01-03T23:00:27.686Z,13.37
2019-01-03T23:02:58.619Z,12.73
2019-01-03T23:05:28.013Z,13.70
2019-01-03T23:07:57.401Z,13.90
2019-01-03T23:10:26.769Z,13.73
2019-01-03T23:12:56.143Z,14.47
2019-01-03T23:15:25.573Z,13.37
2019-01-03T23:17:55.016Z,13.23
2019-01-03T23:20:24.370Z,13.03
2019-01-03T23:22:53.749Z,14.07
2019-01-03T23:25:23.131Z,14.60
2019-01-03T23:27:52.478Z,13.13
2019-01-03T23:30:21.867Z,14.97
2019-01-03T23:32:51.258Z,14.50
2019-01-03T23:35:20.650Z,15.60
2019-01-03T23:37:50.022Z,30.13
2019-01-03T23:40:19.379Z,35.17
2019-01-03T23:42:48.787Z,39.20
2019-01-03T23:45:20.096Z,30.63
2019-01-03T23:47:50.941Z,34.73
2019-01-03T23:50:28.368Z,31.70
2019-01-03T23:52:57.827Z,35.63
2019-01-03T23:55:28.931Z,33.47
2019-01-03T23:57:58.326Z,32.10
